Terminal Aerodrome Forecast
Issued by NWS

Home | Current Version | Previous Version | Text Only | Print | Product List | Glossary On
Versions: 1 2 3 4 5 6 7 8 9 10 11 12 13 14 15
000
FTUS45 KBOI 302106 AAA
TAFMYL
TAF AMD
KMYL 302106Z 3021/3118 31011KT 6SM -SHSN OVC010
     FM302200 34010G15KT 4SM BR VCSH OVC015
     FM310400 33012G18KT 4SM BR VCFG SCT010
     FM311200 32015G25KT P6SM OVC050
     FM311500 33015G22KT P6SM SCT250=

USA.gov is the U.S. government's official web portal to all federal, state and local government web resources and services.